sensor_id;sensor_type;location;lat;lon;timestamp;P1;durP1;ratioP1;P2;durP2;ratioP2
14088;SDS011;7120;52.890;6.040;2023-02-28T00:00:29;28.07;;;26.33;;
14088;SDS011;7120;52.890;6.040;2023-02-28T00:02:54;19.90;;;18.53;;
14088;SDS011;7120;52.890;6.040;2023-02-28T00:05:21;22.63;;;21.07;;
14088;SDS011;7120;52.890;6.040;2023-02-28T00:07:48;26.30;;;24.60;;
14088;SDS011;7120;52.890;6.040;2023-02-28T00:10:14;27.80;;;25.83;;
14088;SDS011;7120;52.890;6.040;2023-02-28T00:12:46;25.57;;;23.47;;
14088;SDS011;7120;52.890;6.040;2023-02-28T00:15:12;25.73;;;24.13;;
14088;SDS011;7120;52.890;6.040;2023-02-28T00:17:37;24.27;;;22.27;;
14088;SDS011;7120;52.890;6.040;2023-02-28T00:20:03;21.60;;;20.10;;
14088;SDS011;7120;52.890;6.040;2023-02-28T00:22:33;19.53;;;18.13;;
14088;SDS011;7120;52.890;6.040;2023-02-28T00:24:59;20.00;;;18.43;;
14088;SDS011;7120;52.890;6.040;2023-02-28T00:27:24;21.17;;;19.60;;
14088;SDS011;7120;52.890;6.040;2023-02-28T00:29:50;22.00;;;20.30;;
14088;SDS011;7120;52.890;6.040;2023-02-28T00:32:15;21.83;;;20.37;;
14088;SDS011;7120;52.890;6.040;2023-02-28T00:34:40;22.37;;;20.70;;
14088;SDS011;7120;52.890;6.040;2023-02-28T00:37:06;22.67;;;20.87;;
14088;SDS011;7120;52.890;6.040;2023-02-28T00:39:34;21.37;;;19.60;;
14088;SDS011;7120;52.890;6.040;2023-02-28T00:42:01;19.23;;;17.77;;
14088;SDS011;7120;52.890;6.040;2023-02-28T00:44:27;21.60;;;20.27;;
14088;SDS011;7120;52.890;6.040;2023-02-28T00:46:53;20.80;;;19.40;;
14088;SDS011;7120;52.890;6.040;2023-02-28T00:49:19;21.37;;;19.50;;
14088;SDS011;7120;52.890;6.040;2023-02-28T00:51:45;22.07;;;20.43;;
14088;SDS011;7120;52.890;6.040;2023-02-28T00:54:12;27.03;;;25.30;;
14088;SDS011;7120;52.890;6.040;2023-02-28T00:56:37;23.53;;;21.50;;
14088;SDS011;7120;52.890;6.040;2023-02-28T00:59:03;27.37;;;25.07;;
14088;SDS011;7120;52.890;6.040;2023-02-28T01:01:28;24.77;;;23.00;;
14088;SDS011;7120;52.890;6.040;2023-02-28T01:03:53;27.13;;;25.30;;
14088;SDS011;7120;52.890;6.040;2023-02-28T01:06:19;26.77;;;24.83;;
14088;SDS011;7120;52.890;6.040;2023-02-28T01:08:44;27.97;;;26.10;;
14088;SDS011;7120;52.890;6.040;2023-02-28T01:11:10;23.17;;;21.63;;
14088;SDS011;7120;52.890;6.040;2023-02-28T01:13:37;26.77;;;24.93;;
14088;SDS011;7120;52.890;6.040;2023-02-28T01:16:03;25.10;;;23.60;;
14088;SDS011;7120;52.890;6.040;2023-02-28T01:18:28;28.57;;;26.33;;
14088;SDS011;7120;52.890;6.040;2023-02-28T01:20:54;28.60;;;26.73;;
14088;SDS011;7120;52.890;6.040;2023-02-28T01:23:20;31.33;;;29.47;;
14088;SDS011;7120;52.890;6.040;2023-02-28T01:25:48;30.03;;;28.03;;
14088;SDS011;7120;52.890;6.040;2023-02-28T01:28:13;28.80;;;26.73;;
14088;SDS011;7120;52.890;6.040;2023-02-28T01:30:39;28.07;;;26.27;;
14088;SDS011;7120;52.890;6.040;2023-02-28T01:33:04;30.57;;;28.70;;
14088;SDS011;7120;52.890;6.040;2023-02-28T01:35:32;27.97;;;25.97;;
14088;SDS011;7120;52.890;6.040;2023-02-28T01:38:00;28.60;;;26.63;;
14088;SDS011;7120;52.890;6.040;2023-02-28T01:40:26;26.47;;;24.67;;
14088;SDS011;7120;52.890;6.040;2023-02-28T01:42:52;24.87;;;23.07;;
14088;SDS011;7120;52.890;6.040;2023-02-28T01:45:27;27.67;;;25.47;;
14088;SDS011;7120;52.890;6.040;2023-02-28T01:47:55;25.03;;;23.50;;
14088;SDS011;7120;52.890;6.040;2023-02-28T01:50:28;27.47;;;25.17;;
14088;SDS011;7120;52.890;6.040;2023-02-28T01:53:01;29.03;;;27.20;;
14088;SDS011;7120;52.890;6.040;2023-02-28T01:55:29;31.80;;;29.50;;
14088;SDS011;7120;52.890;6.040;2023-02-28T01:57:58;27.63;;;25.77;;
14088;SDS011;7120;52.890;6.040;2023-02-28T02:00:27;27.40;;;25.30;;
14088;SDS011;7120;52.890;6.040;2023-02-28T02:02:58;29.37;;;26.67;;
14088;SDS011;7120;52.890;6.040;2023-02-28T02:05:27;27.87;;;25.87;;
14088;SDS011;7120;52.890;6.040;2023-02-28T02:07:56;27.67;;;25.97;;
14088;SDS011;7120;52.890;6.040;2023-02-28T02:10:30;29.43;;;27.43;;
14088;SDS011;7120;52.890;6.040;2023-02-28T02:15:53;27.57;;;25.77;;
14088;SDS011;7120;52.890;6.040;2023-02-28T02:21:18;25.27;;;23.37;;
14088;SDS011;7120;52.890;6.040;2023-02-28T02:36:03;23.63;;;21.80;;
14088;SDS011;7120;52.890;6.040;2023-02-28T02:38:36;25.27;;;23.23;;
14088;SDS011;7120;52.890;6.040;2023-02-28T02:41:32;26.53;;;24.93;;
14088;SDS011;7120;52.890;6.040;2023-02-28T02:44:02;24.80;;;23.00;;
14088;SDS011;7120;52.890;6.040;2023-02-28T02:46:44;29.10;;;27.07;;
14088;SDS011;7120;52.890;6.040;2023-02-28T02:49:31;30.27;;;28.10;;
14088;SDS011;7120;52.890;6.040;2023-02-28T02:51:58;29.00;;;26.77;;
14088;SDS011;7120;52.890;6.040;2023-02-28T02:54:29;29.93;;;27.90;;
14088;SDS011;7120;52.890;6.040;2023-02-28T02:56:57;31.53;;;28.80;;
14088;SDS011;7120;52.890;6.040;2023-02-28T02:59:26;30.67;;;28.57;;
14088;SDS011;7120;52.890;6.040;2023-02-28T03:01:57;31.77;;;29.37;;
14088;SDS011;7120;52.890;6.040;2023-02-28T03:04:27;30.00;;;27.83;;
14088;SDS011;7120;52.890;6.040;2023-02-28T03:06:58;30.53;;;28.57;;
14088;SDS011;7120;52.890;6.040;2023-02-28T03:09:24;31.97;;;29.90;;
14088;SDS011;7120;52.890;6.040;2023-02-28T03:11:52;35.90;;;33.33;;
14088;SDS011;7120;52.890;6.040;2023-02-28T03:25:29;29.57;;;27.37;;
14088;SDS011;7120;52.890;6.040;2023-02-28T03:28:00;31.50;;;29.43;;
14088;SDS011;7120;52.890;6.040;2023-02-28T03:30:33;33.87;;;31.57;;
14088;SDS011;7120;52.890;6.040;2023-02-28T03:33:06;34.60;;;32.07;;
14088;SDS011;7120;52.890;6.040;2023-02-28T03:35:39;34.43;;;32.03;;
14088;SDS011;7120;52.890;6.040;2023-02-28T03:38:18;35.37;;;33.03;;
14088;SDS011;7120;52.890;6.040;2023-02-28T03:40:55;36.57;;;33.93;;
14088;SDS011;7120;52.890;6.040;2023-02-28T03:43:29;35.80;;;32.90;;
14088;SDS011;7120;52.890;6.040;2023-02-28T03:45:57;36.93;;;34.10;;
14088;SDS011;7120;52.890;6.040;2023-02-28T03:48:27;37.67;;;34.83;;
14088;SDS011;7120;52.890;6.040;2023-02-28T03:50:59;36.67;;;34.10;;
14088;SDS011;7120;52.890;6.040;2023-02-28T03:53:34;34.93;;;32.27;;
14088;SDS011;7120;52.890;6.040;2023-02-28T03:56:21;36.63;;;33.60;;
14088;SDS011;7120;52.890;6.040;2023-02-28T04:01:35;30.47;;;27.97;;
14088;SDS011;7120;52.890;6.040;2023-02-28T04:04:01;35.27;;;32.77;;
14088;SDS011;7120;52.890;6.040;2023-02-28T04:06:27;34.13;;;31.47;;
14088;SDS011;7120;52.890;6.040;2023-02-28T04:08:52;33.80;;;30.90;;
14088;SDS011;7120;52.890;6.040;2023-02-28T04:14:04;28.13;;;25.93;;
14088;SDS011;7120;52.890;6.040;2023-02-28T04:16:30;30.07;;;27.63;;
14088;SDS011;7120;52.890;6.040;2023-02-28T04:18:57;28.83;;;26.57;;
14088;SDS011;7120;52.890;6.040;2023-02-28T04:21:30;28.40;;;26.20;;
14088;SDS011;7120;52.890;6.040;2023-02-28T04:23:58;30.23;;;27.83;;
14088;SDS011;7120;52.890;6.040;2023-02-28T04:26:29;30.87;;;28.60;;
14088;SDS011;7120;52.890;6.040;2023-02-28T04:28:55;28.67;;;26.37;;
14088;SDS011;7120;52.890;6.040;2023-02-28T04:31:21;27.40;;;25.13;;
14088;SDS011;7120;52.890;6.040;2023-02-28T04:33:46;28.33;;;25.80;;
14088;SDS011;7120;52.890;6.040;2023-02-28T04:36:12;25.73;;;23.60;;
14088;SDS011;7120;52.890;6.040;2023-02-28T04:38:39;26.27;;;24.23;;
14088;SDS011;7120;52.890;6.040;2023-02-28T04:41:05;32.70;;;29.50;;
14088;SDS011;7120;52.890;6.040;2023-02-28T04:43:30;34.07;;;29.83;;
14088;SDS011;7120;52.890;6.040;2023-02-28T04:45:57;37.80;;;34.00;;
14088;SDS011;7120;52.890;6.040;2023-02-28T04:48:27;39.57;;;30.93;;
14088;SDS011;7120;52.890;6.040;2023-02-28T04:50:53;41.13;;;30.70;;
14088;SDS011;7120;52.890;6.040;2023-02-28T04:53:19;36.13;;;30.40;;
14088;SDS011;7120;52.890;6.040;2023-02-28T04:55:45;37.23;;;31.10;;
14088;SDS011;7120;52.890;6.040;2023-02-28T04:58:11;38.33;;;31.33;;
14088;SDS011;7120;52.890;6.040;2023-02-28T05:00:37;37.03;;;32.80;;
14088;SDS011;7120;52.890;6.040;2023-02-28T05:03:03;42.00;;;31.80;;
14088;SDS011;7120;52.890;6.040;2023-02-28T05:05:28;38.30;;;31.87;;
14088;SDS011;7120;52.890;6.040;2023-02-28T05:07:53;42.23;;;33.27;;
14088;SDS011;7120;52.890;6.040;2023-02-28T05:10:20;40.93;;;32.57;;
14088;SDS011;7120;52.890;6.040;2023-02-28T05:12:46;38.70;;;30.47;;
14088;SDS011;7120;52.890;6.040;2023-02-28T05:15:13;39.70;;;31.03;;
14088;SDS011;7120;52.890;6.040;2023-02-28T05:17:40;38.73;;;29.83;;
14088;SDS011;7120;52.890;6.040;2023-02-28T05:20:06;42.33;;;31.73;;
14088;SDS011;7120;52.890;6.040;2023-02-28T05:22:32;44.67;;;31.87;;
14088;SDS011;7120;52.890;6.040;2023-02-28T05:24:57;43.20;;;33.27;;
14088;SDS011;7120;52.890;6.040;2023-02-28T05:27:22;52.43;;;34.07;;
14088;SDS011;7120;52.890;6.040;2023-02-28T05:29:48;39.13;;;30.83;;
14088;SDS011;7120;52.890;6.040;2023-02-28T05:32:14;46.33;;;33.30;;
14088;SDS011;7120;52.890;6.040;2023-02-28T05:34:40;46.83;;;32.00;;
14088;SDS011;7120;52.890;6.040;2023-02-28T05:37:05;48.27;;;33.00;;
14088;SDS011;7120;52.890;6.040;2023-02-28T05:39:31;50.73;;;33.23;;
14088;SDS011;7120;52.890;6.040;2023-02-28T05:41:57;50.57;;;32.10;;
14088;SDS011;7120;52.890;6.040;2023-02-28T05:44:23;47.60;;;33.27;;
14088;SDS011;7120;52.890;6.040;2023-02-28T05:46:49;58.90;;;32.80;;
14088;SDS011;7120;52.890;6.040;2023-02-28T05:49:14;52.63;;;33.87;;
14088;SDS011;7120;52.890;6.040;2023-02-28T05:51:40;54.33;;;35.80;;
14088;SDS011;7120;52.890;6.040;2023-02-28T05:54:05;57.53;;;33.83;;
14088;SDS011;7120;52.890;6.040;2023-02-28T05:56:31;67.37;;;35.97;;
14088;SDS011;7120;52.890;6.040;2023-02-28T05:58:59;56.70;;;34.97;;
14088;SDS011;7120;52.890;6.040;2023-02-28T06:03:56;59.80;;;35.10;;
14088;SDS011;7120;52.890;6.040;2023-02-28T06:06:21;63.43;;;34.80;;
14088;SDS011;7120;52.890;6.040;2023-02-28T06:08:47;67.67;;;32.90;;
14088;SDS011;7120;52.890;6.040;2023-02-28T06:11:12;58.67;;;36.60;;
14088;SDS011;7120;52.890;6.040;2023-02-28T06:13:38;64.80;;;34.00;;
14088;SDS011;7120;52.890;6.040;2023-02-28T06:16:03;67.50;;;35.40;;
14088;SDS011;7120;52.890;6.040;2023-02-28T06:18:29;70.07;;;35.50;;
14088;SDS011;7120;52.890;6.040;2023-02-28T06:20:54;70.73;;;35.97;;
14088;SDS011;7120;52.890;6.040;2023-02-28T06:23:20;66.57;;;35.70;;
14088;SDS011;7120;52.890;6.040;2023-02-28T06:25:46;64.33;;;34.73;;
14088;SDS011;7120;52.890;6.040;2023-02-28T06:28:12;66.97;;;32.83;;
14088;SDS011;7120;52.890;6.040;2023-02-28T06:30:38;76.23;;;37.20;;
14088;SDS011;7120;52.890;6.040;2023-02-28T06:33:04;73.80;;;35.57;;
14088;SDS011;7120;52.890;6.040;2023-02-28T06:35:29;66.53;;;35.30;;
14088;SDS011;7120;52.890;6.040;2023-02-28T06:37:55;65.77;;;35.50;;
14088;SDS011;7120;52.890;6.040;2023-02-28T06:40:20;70.33;;;34.03;;
14088;SDS011;7120;52.890;6.040;2023-02-28T06:42:46;68.83;;;35.27;;
14088;SDS011;7120;52.890;6.040;2023-02-28T06:45:11;66.67;;;34.10;;
14088;SDS011;7120;52.890;6.040;2023-02-28T06:47:37;60.27;;;35.07;;
14088;SDS011;7120;52.890;6.040;2023-02-28T06:50:04;87.50;;;37.43;;
14088;SDS011;7120;52.890;6.040;2023-02-28T06:52:31;57.07;;;34.77;;
14088;SDS011;7120;52.890;6.040;2023-02-28T06:54:56;74.07;;;34.90;;
14088;SDS011;7120;52.890;6.040;2023-02-28T06:57:30;74.20;;;36.57;;
14088;SDS011;7120;52.890;6.040;2023-02-28T07:00:00;70.73;;;37.10;;
14088;SDS011;7120;52.890;6.040;2023-02-28T07:02:29;79.13;;;35.97;;
14088;SDS011;7120;52.890;6.040;2023-02-28T07:04:54;66.53;;;35.87;;
14088;SDS011;7120;52.890;6.040;2023-02-28T07:07:20;69.80;;;34.47;;
14088;SDS011;7120;52.890;6.040;2023-02-28T07:09:45;63.67;;;33.33;;
14088;SDS011;7120;52.890;6.040;2023-02-28T07:12:11;69.80;;;35.10;;
14088;SDS011;7120;52.890;6.040;2023-02-28T07:14:36;74.63;;;36.93;;
14088;SDS011;7120;52.890;6.040;2023-02-28T07:17:02;83.73;;;37.43;;
14088;SDS011;7120;52.890;6.040;2023-02-28T07:19:28;74.97;;;36.17;;
14088;SDS011;7120;52.890;6.040;2023-02-28T07:21:53;83.37;;;35.17;;
14088;SDS011;7120;52.890;6.040;2023-02-28T07:24:19;73.60;;;37.00;;
14088;SDS011;7120;52.890;6.040;2023-02-28T07:26:44;77.00;;;36.67;;
14088;SDS011;7120;52.890;6.040;2023-02-28T07:29:09;56.37;;;35.17;;
14088;SDS011;7120;52.890;6.040;2023-02-28T07:31:35;63.37;;;37.47;;
14088;SDS011;7120;52.890;6.040;2023-02-28T07:34:00;53.27;;;36.80;;
14088;SDS011;7120;52.890;6.040;2023-02-28T07:36:26;53.53;;;36.00;;
14088;SDS011;7120;52.890;6.040;2023-02-28T07:38:51;57.50;;;36.03;;
14088;SDS011;7120;52.890;6.040;2023-02-28T07:41:18;55.80;;;35.77;;
14088;SDS011;7120;52.890;6.040;2023-02-28T07:43:46;58.47;;;35.47;;
14088;SDS011;7120;52.890;6.040;2023-02-28T07:46:12;58.83;;;36.37;;
14088;SDS011;7120;52.890;6.040;2023-02-28T07:48:40;54.30;;;37.33;;
14088;SDS011;7120;52.890;6.040;2023-02-28T07:51:06;55.03;;;38.67;;
14088;SDS011;7120;52.890;6.040;2023-02-28T07:53:32;57.93;;;36.13;;
14088;SDS011;7120;52.890;6.040;2023-02-28T07:55:57;50.10;;;38.63;;
14088;SDS011;7120;52.890;6.040;2023-02-28T07:58:24;57.63;;;37.43;;
14088;SDS011;7120;52.890;6.040;2023-02-28T08:00:50;53.40;;;36.77;;
14088;SDS011;7120;52.890;6.040;2023-02-28T08:03:17;55.97;;;41.00;;
14088;SDS011;7120;52.890;6.040;2023-02-28T08:05:43;66.43;;;41.97;;
14088;SDS011;7120;52.890;6.040;2023-02-28T08:08:09;83.40;;;55.47;;
14088;SDS011;7120;52.890;6.040;2023-02-28T08:10:34;68.60;;;48.30;;
14088;SDS011;7120;52.890;6.040;2023-02-28T08:13:00;68.23;;;48.57;;
14088;SDS011;7120;52.890;6.040;2023-02-28T08:15:25;86.17;;;54.00;;
14088;SDS011;7120;52.890;6.040;2023-02-28T08:17:51;95.57;;;60.20;;
14088;SDS011;7120;52.890;6.040;2023-02-28T08:20:16;175.83;;;120.40;;
14088;SDS011;7120;52.890;6.040;2023-02-28T08:22:41;96.33;;;62.60;;
14088;SDS011;7120;52.890;6.040;2023-02-28T08:25:07;104.00;;;61.37;;
14088;SDS011;7120;52.890;6.040;2023-02-28T08:27:33;99.43;;;66.37;;
14088;SDS011;7120;52.890;6.040;2023-02-28T08:29:59;95.30;;;67.23;;
14088;SDS011;7120;52.890;6.040;2023-02-28T08:32:24;113.70;;;79.87;;
14088;SDS011;7120;52.890;6.040;2023-02-28T08:34:50;113.27;;;75.03;;
14088;SDS011;7120;52.890;6.040;2023-02-28T08:37:16;117.53;;;78.20;;
14088;SDS011;7120;52.890;6.040;2023-02-28T08:39:41;114.00;;;78.53;;
14088;SDS011;7120;52.890;6.040;2023-02-28T08:42:07;125.80;;;79.20;;
14088;SDS011;7120;52.890;6.040;2023-02-28T08:44:32;106.30;;;75.13;;
14088;SDS011;7120;52.890;6.040;2023-02-28T08:46:57;105.53;;;74.80;;
14088;SDS011;7120;52.890;6.040;2023-02-28T08:49:23;98.47;;;72.53;;
14088;SDS011;7120;52.890;6.040;2023-02-28T08:51:48;91.93;;;68.20;;
14088;SDS011;7120;52.890;6.040;2023-02-28T08:54:14;85.70;;;68.53;;
14088;SDS011;7120;52.890;6.040;2023-02-28T08:56:44;83.83;;;67.97;;
14088;SDS011;7120;52.890;6.040;2023-02-28T08:59:10;77.83;;;61.03;;
14088;SDS011;7120;52.890;6.040;2023-02-28T09:01:35;79.00;;;65.47;;
14088;SDS011;7120;52.890;6.040;2023-02-28T09:04:01;74.03;;;55.57;;
14088;SDS011;7120;52.890;6.040;2023-02-28T09:06:27;62.30;;;48.27;;
14088;SDS011;7120;52.890;6.040;2023-02-28T09:08:55;58.07;;;44.20;;
14088;SDS011;7120;52.890;6.040;2023-02-28T09:11:23;60.90;;;44.00;;
14088;SDS011;7120;52.890;6.040;2023-02-28T09:13:49;72.27;;;55.10;;
14088;SDS011;7120;52.890;6.040;2023-02-28T09:16:14;83.37;;;72.57;;
14088;SDS011;7120;52.890;6.040;2023-02-28T09:18:41;68.03;;;57.60;;
14088;SDS011;7120;52.890;6.040;2023-02-28T09:21:07;56.10;;;43.53;;
14088;SDS011;7120;52.890;6.040;2023-02-28T09:23:34;55.37;;;40.77;;
14088;SDS011;7120;52.890;6.040;2023-02-28T09:26:02;55.97;;;41.90;;
14088;SDS011;7120;52.890;6.040;2023-02-28T09:28:28;50.33;;;39.30;;
14088;SDS011;7120;52.890;6.040;2023-02-28T09:30:54;56.33;;;42.73;;
14088;SDS011;7120;52.890;6.040;2023-02-28T09:33:20;50.60;;;37.87;;
14088;SDS011;7120;52.890;6.040;2023-02-28T09:35:47;39.67;;;31.03;;
14088;SDS011;7120;52.890;6.040;2023-02-28T09:38:13;46.03;;;34.83;;
14088;SDS011;7120;52.890;6.040;2023-02-28T09:40:40;33.77;;;27.83;;
14088;SDS011;7120;52.890;6.040;2023-02-28T09:43:16;31.77;;;26.70;;
14088;SDS011;7120;52.890;6.040;2023-02-28T09:45:55;24.47;;;21.97;;
14088;SDS011;7120;52.890;6.040;2023-02-28T09:48:31;18.83;;;16.83;;
14088;SDS011;7120;52.890;6.040;2023-02-28T09:51:13;16.00;;;14.53;;
14088;SDS011;7120;52.890;6.040;2023-02-28T09:53:51;17.30;;;15.90;;
14088;SDS011;7120;52.890;6.040;2023-02-28T09:56:25;654.47;;;617.13;;
14088;SDS011;7120;52.890;6.040;2023-02-28T09:59:35;466.10;;;446.67;;
14088;SDS011;7120;52.890;6.040;2023-02-28T10:02:08;498.93;;;477.70;;
14088;SDS011;7120;52.890;6.040;2023-02-28T10:04:50;453.90;;;434.67;;
14088;SDS011;7120;52.890;6.040;2023-02-28T10:15:44;20.15;;;8.40;;
14088;SDS011;7120;52.890;6.040;2023-02-28T10:23:46;5.83;;;5.27;;
14088;SDS011;7120;52.890;6.040;2023-02-28T10:26:13;5.83;;;4.53;;
14088;SDS011;7120;52.890;6.040;2023-02-28T10:28:41;6.80;;;4.83;;
14088;SDS011;7120;52.890;6.040;2023-02-28T10:31:10;3.97;;;3.03;;
14088;SDS011;7120;52.890;6.040;2023-02-28T10:33:39;4.67;;;4.17;;
14088;SDS011;7120;52.890;6.040;2023-02-28T10:36:05;7.97;;;7.27;;
14088;SDS011;7120;52.890;6.040;2023-02-28T10:38:36;3.70;;;2.80;;
14088;SDS011;7120;52.890;6.040;2023-02-28T10:43:40;3.10;;;2.80;;
14088;SDS011;7120;52.890;6.040;2023-02-28T10:48:38;3.80;;;3.50;;
14088;SDS011;7120;52.890;6.040;2023-02-28T10:51:06;3.87;;;3.47;;
14088;SDS011;7120;52.890;6.040;2023-02-28T10:56:16;5.47;;;4.57;;
14088;SDS011;7120;52.890;6.040;2023-02-28T10:58:48;5.03;;;4.30;;
14088;SDS011;7120;52.890;6.040;2023-02-28T11:03:57;4.43;;;3.60;;
14088;SDS011;7120;52.890;6.040;2023-02-28T11:06:23;4.43;;;3.90;;
14088;SDS011;7120;52.890;6.040;2023-02-28T11:08:58;4.20;;;3.20;;
14088;SDS011;7120;52.890;6.040;2023-02-28T11:11:45;4.90;;;3.17;;
14088;SDS011;7120;52.890;6.040;2023-02-28T11:14:27;3.87;;;3.33;;
14088;SDS011;7120;52.890;6.040;2023-02-28T11:17:03;4.40;;;3.00;;
14088;SDS011;7120;52.890;6.040;2023-02-28T11:19:40;4.20;;;2.97;;
14088;SDS011;7120;52.890;6.040;2023-02-28T11:22:10;3.37;;;2.53;;
14088;SDS011;7120;52.890;6.040;2023-02-28T11:24:44;3.60;;;2.80;;
14088;SDS011;7120;52.890;6.040;2023-02-28T11:27:26;3.90;;;2.77;;
14088;SDS011;7120;52.890;6.040;2023-02-28T11:30:43;3.83;;;2.67;;
14088;SDS011;7120;52.890;6.040;2023-02-28T11:36:02;3.13;;;2.50;;
14088;SDS011;7120;52.890;6.040;2023-02-28T11:38:34;2.57;;;2.17;;
14088;SDS011;7120;52.890;6.040;2023-02-28T11:44:01;2.80;;;2.60;;
14088;SDS011;7120;52.890;6.040;2023-02-28T11:51:59;3.43;;;2.40;;
14088;SDS011;7120;52.890;6.040;2023-02-28T11:54:31;2.53;;;2.33;;
14088;SDS011;7120;52.890;6.040;2023-02-28T11:57:29;3.00;;;2.70;;
14088;SDS011;7120;52.890;6.040;2023-02-28T12:05:46;11.13;;;8.13;;
14088;SDS011;7120;52.890;6.040;2023-02-28T12:09:02;3.47;;;2.53;;
14088;SDS011;7120;52.890;6.040;2023-02-28T12:14:23;3.90;;;3.37;;
14088;SDS011;7120;52.890;6.040;2023-02-28T12:19:50;3.13;;;2.60;;
14088;SDS011;7120;52.890;6.040;2023-02-28T12:22:32;3.03;;;2.73;;
14088;SDS011;7120;52.890;6.040;2023-02-28T12:25:23;3.73;;;2.60;;
14088;SDS011;7120;52.890;6.040;2023-02-28T12:28:14;4.37;;;2.60;;
14088;SDS011;7120;52.890;6.040;2023-02-28T12:30:50;2.70;;;2.50;;
14088;SDS011;7120;52.890;6.040;2023-02-28T12:33:22;7.70;;;4.97;;
14088;SDS011;7120;52.890;6.040;2023-02-28T12:35:57;10.43;;;8.37;;
14088;SDS011;7120;52.890;6.040;2023-02-28T12:38:27;10.00;;;8.63;;
14088;SDS011;7120;52.890;6.040;2023-02-28T12:41:05;7.00;;;5.53;;
14088;SDS011;7120;52.890;6.040;2023-02-28T12:43:40;6.93;;;6.23;;
14088;SDS011;7120;52.890;6.040;2023-02-28T12:46:23;5.07;;;3.87;;
14088;SDS011;7120;52.890;6.040;2023-02-28T12:48:57;4.67;;;4.20;;
14088;SDS011;7120;52.890;6.040;2023-02-28T12:51:26;6.97;;;5.13;;
14088;SDS011;7120;52.890;6.040;2023-02-28T13:02:09;5.87;;;5.30;;
14088;SDS011;7120;52.890;6.040;2023-02-28T13:07:55;5.30;;;4.20;;
14088;SDS011;7120;52.890;6.040;2023-02-28T13:10:43;6.47;;;4.60;;
14088;SDS011;7120;52.890;6.040;2023-02-28T13:13:14;5.87;;;4.23;;
14088;SDS011;7120;52.890;6.040;2023-02-28T13:15:56;4.27;;;3.87;;
14088;SDS011;7120;52.890;6.040;2023-02-28T13:21:02;3.73;;;3.40;;
14088;SDS011;7120;52.890;6.040;2023-02-28T13:26:17;4.10;;;3.57;;
14088;SDS011;7120;52.890;6.040;2023-02-28T13:31:20;4.03;;;3.63;;
14088;SDS011;7120;52.890;6.040;2023-02-28T13:36:27;5.50;;;3.87;;
14088;SDS011;7120;52.890;6.040;2023-02-28T13:38:56;3.87;;;3.27;;
14088;SDS011;7120;52.890;6.040;2023-02-28T13:44:10;4.47;;;3.73;;
14088;SDS011;7120;52.890;6.040;2023-02-28T13:54:51;6.60;;;4.10;;
14088;SDS011;7120;52.890;6.040;2023-02-28T14:05:41;5.23;;;4.73;;
14088;SDS011;7120;52.890;6.040;2023-02-28T14:08:15;4.50;;;4.10;;
14088;SDS011;7120;52.890;6.040;2023-02-28T14:10:46;5.63;;;4.30;;
14088;SDS011;7120;52.890;6.040;2023-02-28T14:16:02;6.60;;;5.63;;
14088;SDS011;7120;52.890;6.040;2023-02-28T14:21:14;8.07;;;5.50;;
14088;SDS011;7120;52.890;6.040;2023-02-28T14:35:26;5.90;;;5.30;;
14088;SDS011;7120;52.890;6.040;2023-02-28T14:38:05;5.10;;;4.60;;
14088;SDS011;7120;52.890;6.040;2023-02-28T14:40:38;6.50;;;5.77;;
14088;SDS011;7120;52.890;6.040;2023-02-28T14:43:05;4.90;;;4.33;;
14088;SDS011;7120;52.890;6.040;2023-02-28T14:45:43;5.00;;;4.60;;
14088;SDS011;7120;52.890;6.040;2023-02-28T14:48:09;5.93;;;3.87;;
14088;SDS011;7120;52.890;6.040;2023-02-28T14:50:35;5.67;;;4.17;;
14088;SDS011;7120;52.890;6.040;2023-02-28T14:53:02;4.27;;;3.60;;
14088;SDS011;7120;52.890;6.040;2023-02-28T14:55:32;4.30;;;3.90;;
14088;SDS011;7120;52.890;6.040;2023-02-28T14:58:03;4.20;;;3.80;;
14088;SDS011;7120;52.890;6.040;2023-02-28T15:00:36;5.13;;;4.37;;
14088;SDS011;7120;52.890;6.040;2023-02-28T15:05:56;5.27;;;4.27;;
14088;SDS011;7120;52.890;6.040;2023-02-28T15:08:23;5.00;;;3.97;;
14088;SDS011;7120;52.890;6.040;2023-02-28T15:11:07;4.00;;;3.70;;
14088;SDS011;7120;52.890;6.040;2023-02-28T15:13:44;5.33;;;4.20;;
14088;SDS011;7120;52.890;6.040;2023-02-28T15:16:22;4.77;;;4.23;;
14088;SDS011;7120;52.890;6.040;2023-02-28T15:18:56;7.20;;;4.03;;
14088;SDS011;7120;52.890;6.040;2023-02-28T15:21:25;5.70;;;4.50;;
14088;SDS011;7120;52.890;6.040;2023-02-28T15:24:41;5.23;;;4.73;;
14088;SDS011;7120;52.890;6.040;2023-02-28T15:26:57;4.83;;;4.33;;
14088;SDS011;7120;52.890;6.040;2023-02-28T15:29:25;4.67;;;4.20;;
14088;SDS011;7120;52.890;6.040;2023-02-28T15:32:03;5.33;;;4.40;;
14088;SDS011;7120;52.890;6.040;2023-02-28T15:34:40;8.97;;;8.07;;
14088;SDS011;7120;52.890;6.040;2023-02-28T15:39:52;6.53;;;5.77;;
14088;SDS011;7120;52.890;6.040;2023-02-28T15:42:20;5.97;;;4.30;;
14088;SDS011;7120;52.890;6.040;2023-02-28T15:44:47;5.77;;;5.17;;
14088;SDS011;7120;52.890;6.040;2023-02-28T15:49:50;24.30;;;18.73;;
14088;SDS011;7120;52.890;6.040;2023-02-28T15:52:39;13.07;;;11.07;;
14088;SDS011;7120;52.890;6.040;2023-02-28T15:55:10;9.20;;;5.90;;
14088;SDS011;7120;52.890;6.040;2023-02-28T15:57:43;8.07;;;5.43;;
14088;SDS011;7120;52.890;6.040;2023-02-28T16:00:11;5.97;;;5.00;;
14088;SDS011;7120;52.890;6.040;2023-02-28T16:02:39;6.17;;;5.20;;
14088;SDS011;7120;52.890;6.040;2023-02-28T16:07:30;7.20;;;5.20;;
14088;SDS011;7120;52.890;6.040;2023-02-28T16:09:56;5.27;;;4.87;;
14088;SDS011;7120;52.890;6.040;2023-02-28T16:12:25;5.67;;;5.07;;
14088;SDS011;7120;52.890;6.040;2023-02-28T16:14:53;7.33;;;5.43;;
14088;SDS011;7120;52.890;6.040;2023-02-28T16:17:22;5.87;;;5.13;;
14088;SDS011;7120;52.890;6.040;2023-02-28T16:19:50;6.63;;;5.43;;
14088;SDS011;7120;52.890;6.040;2023-02-28T16:22:16;5.97;;;5.33;;
14088;SDS011;7120;52.890;6.040;2023-02-28T16:24:41;7.80;;;7.07;;
14088;SDS011;7120;52.890;6.040;2023-02-28T16:27:09;5.87;;;5.17;;
14088;SDS011;7120;52.890;6.040;2023-02-28T16:29:41;6.43;;;5.83;;
14088;SDS011;7120;52.890;6.040;2023-02-28T16:32:07;7.10;;;6.40;;
14088;SDS011;7120;52.890;6.040;2023-02-28T16:34:32;6.63;;;5.93;;
14088;SDS011;7120;52.890;6.040;2023-02-28T16:36:58;6.53;;;5.60;;
14088;SDS011;7120;52.890;6.040;2023-02-28T16:39:23;10.97;;;6.30;;
14088;SDS011;7120;52.890;6.040;2023-02-28T16:41:49;6.30;;;5.80;;
14088;SDS011;7120;52.890;6.040;2023-02-28T16:44:33;6.67;;;5.60;;
14088;SDS011;7120;52.890;6.040;2023-02-28T16:47:01;6.27;;;5.67;;
14088;SDS011;7120;52.890;6.040;2023-02-28T16:49:28;7.13;;;6.40;;
14088;SDS011;7120;52.890;6.040;2023-02-28T16:51:54;7.33;;;6.53;;
14088;SDS011;7120;52.890;6.040;2023-02-28T16:54:19;6.50;;;5.90;;
14088;SDS011;7120;52.890;6.040;2023-02-28T16:56:47;7.40;;;6.70;;
14088;SDS011;7120;52.890;6.040;2023-02-28T16:59:13;7.67;;;6.30;;
14088;SDS011;7120;52.890;6.040;2023-02-28T17:01:42;7.10;;;6.33;;
14088;SDS011;7120;52.890;6.040;2023-02-28T17:04:08;8.27;;;7.43;;
14088;SDS011;7120;52.890;6.040;2023-02-28T17:06:36;11.33;;;9.03;;
14088;SDS011;7120;52.890;6.040;2023-02-28T17:09:01;9.10;;;8.27;;
14088;SDS011;7120;52.890;6.040;2023-02-28T17:11:27;10.87;;;7.37;;
14088;SDS011;7120;52.890;6.040;2023-02-28T17:13:52;12.13;;;7.93;;
14088;SDS011;7120;52.890;6.040;2023-02-28T17:16:28;10.00;;;7.60;;
14088;SDS011;7120;52.890;6.040;2023-02-28T17:18:56;9.33;;;7.93;;
14088;SDS011;7120;52.890;6.040;2023-02-28T17:21:24;9.10;;;7.73;;
14088;SDS011;7120;52.890;6.040;2023-02-28T17:23:49;8.90;;;7.97;;
14088;SDS011;7120;52.890;6.040;2023-02-28T17:26:16;9.83;;;8.30;;
14088;SDS011;7120;52.890;6.040;2023-02-28T17:28:44;11.80;;;9.10;;